createdAt,value
2022-08-11T00:02:32.565Z,4.05
2022-08-11T00:05:08.608Z,3.72
2022-08-11T00:07:44.993Z,4.00
2022-08-11T00:10:15.785Z,4.20
2022-08-11T00:12:51.926Z,4.22
2022-08-11T00:15:21.717Z,4.53
2022-08-11T00:17:52.085Z,4.20
2022-08-11T00:20:21.983Z,4.28
2022-08-11T00:22:52.549Z,4.47
2022-08-11T00:25:23.505Z,4.37
2022-08-11T00:27:54.069Z,4.20
2022-08-11T00:30:23.413Z,4.90
2022-08-11T00:32:59.085Z,3.90
2022-08-11T00:35:51.366Z,3.93
2022-08-11T00:38:26.951Z,4.10
2022-08-11T00:41:02.454Z,4.50
2022-08-11T00:43:57.321Z,3.97
2022-08-11T00:46:36.736Z,3.83
2022-08-11T00:49:17.718Z,3.93
2022-08-11T00:52:05.812Z,3.67
2022-08-11T00:55:04.304Z,4.10
2022-08-11T00:58:03.925Z,3.50
2022-08-11T01:00:59.266Z,3.97
2022-08-11T01:03:49.567Z,3.60
2022-08-11T01:06:40.023Z,3.97
2022-08-11T01:09:30.337Z,3.87
2022-08-11T01:12:33.188Z,3.93
2022-08-11T01:15:57.399Z,3.70
2022-08-11T01:19:17.337Z,3.77
2022-08-11T01:22:44.580Z,4.10
2022-08-11T01:25:56.713Z,4.13
2022-08-11T01:29:07.283Z,4.13
2022-08-11T01:32:13.590Z,4.30
2022-08-11T01:35:27.354Z,3.93
2022-08-11T01:38:27.555Z,3.80
2022-08-11T01:41:24.415Z,4.00
2022-08-11T01:44:32.469Z,3.60
2022-08-11T01:47:36.923Z,3.77
2022-08-11T01:50:19.164Z,4.03
2022-08-11T01:53:07.167Z,3.77
2022-08-11T01:55:46.563Z,3.87
2022-08-11T01:58:34.286Z,3.57
2022-08-11T02:01:33.259Z,3.90
2022-08-11T02:04:20.537Z,3.20
2022-08-11T02:07:01.000Z,3.93
2022-08-11T02:09:55.232Z,4.37
2022-08-11T02:12:43.039Z,4.03
2022-08-11T02:15:35.309Z,4.00
2022-08-11T02:18:16.699Z,3.60
2022-08-11T02:21:11.790Z,3.60
2022-08-11T02:24:05.955Z,3.93
2022-08-11T02:26:44.523Z,3.97
2022-08-11T02:29:24.353Z,3.90
2022-08-11T02:32:30.016Z,4.10
2022-08-11T02:35:05.392Z,4.03
2022-08-11T02:38:00.984Z,3.73
2022-08-11T02:40:46.846Z,3.87
2022-08-11T02:43:31.126Z,3.50
2022-08-11T02:46:20.704Z,3.93
2022-08-11T02:49:15.836Z,3.80
2022-08-11T02:52:00.732Z,3.33
2022-08-11T02:54:38.478Z,3.67
2022-08-11T02:57:21.261Z,3.90
2022-08-11T02:59:58.685Z,4.23
2022-08-11T03:02:55.413Z,4.67
2022-08-11T03:05:35.872Z,4.00
2022-08-11T03:08:19.012Z,4.80
2022-08-11T03:11:19.306Z,4.13
2022-08-11T03:14:18.962Z,4.23
2022-08-11T03:16:58.247Z,4.57
2022-08-11T03:19:36.502Z,4.53
2022-08-11T03:22:14.612Z,4.53
2022-08-11T03:24:55.598Z,4.57
2022-08-11T03:27:37.057Z,4.10
2022-08-11T03:30:15.109Z,4.37
2022-08-11T03:33:17.295Z,4.30
2022-08-11T03:35:56.347Z,4.03
2022-08-11T03:38:30.416Z,4.50
2022-08-11T03:42:02.060Z,3.97
2022-08-11T03:44:39.514Z,4.00
2022-08-11T03:47:26.423Z,4.60
2022-08-11T03:50:05.096Z,4.60
2022-08-11T03:52:49.491Z,4.20
2022-08-11T03:55:34.099Z,3.87
2022-08-11T03:58:41.986Z,4.40
2022-08-11T04:01:56.843Z,4.10
2022-08-11T04:05:14.810Z,4.40
2022-08-11T04:08:34.254Z,4.67
2022-08-11T04:11:25.614Z,4.67
2022-08-11T04:15:02.386Z,4.70
2022-08-11T04:18:22.378Z,4.17
2022-08-11T04:21:13.096Z,4.57
2022-08-11T04:24:38.731Z,4.20
2022-08-11T04:27:43.488Z,3.73
2022-08-11T04:30:17.601Z,4.63
2022-08-11T04:33:35.228Z,4.50
2022-08-11T04:36:50.057Z,4.40
2022-08-11T04:39:35.552Z,4.03
2022-08-11T04:42:52.428Z,4.60
2022-08-11T04:45:46.732Z,4.55
2022-08-11T04:48:57.898Z,4.17
2022-08-11T04:52:06.062Z,4.07
2022-08-11T04:55:12.422Z,4.30
2022-08-11T04:58:10.858Z,4.30
2022-08-11T05:01:08.141Z,4.55
2022-08-11T05:04:05.347Z,5.03
2022-08-11T05:07:07.250Z,4.13
2022-08-11T05:09:49.255Z,4.80
2022-08-11T05:12:31.528Z,4.18
2022-08-11T05:15:19.072Z,4.35
2022-08-11T05:18:16.379Z,4.28
2022-08-11T05:21:08.157Z,4.15
2022-08-11T05:24:02.080Z,3.95
2022-08-11T05:26:57.087Z,3.55
2022-08-11T05:29:47.741Z,3.65
2022-08-11T05:32:36.358Z,3.85
2022-08-11T05:35:08.895Z,3.42
2022-08-11T05:38:02.136Z,4.15
2022-08-11T05:40:53.322Z,3.90
2022-08-11T05:44:21.755Z,3.72
2022-08-11T05:46:59.796Z,4.53
2022-08-11T05:49:49.732Z,4.00
2022-08-11T05:52:41.810Z,3.55
2022-08-11T05:55:30.073Z,3.67
2022-08-11T05:58:03.530Z,3.92
2022-08-11T06:00:34.127Z,3.42
2022-08-11T06:03:07.711Z,3.78
2022-08-11T06:05:43.413Z,3.92
2022-08-11T06:08:15.292Z,3.40
2022-08-11T06:10:46.972Z,3.00
2022-08-11T06:13:19.703Z,3.00
2022-08-11T06:15:52.201Z,3.40
2022-08-11T06:18:22.318Z,3.40
2022-08-11T06:20:54.414Z,3.25
2022-08-11T06:23:25.456Z,3.17
2022-08-11T06:25:56.373Z,3.20
2022-08-11T06:28:34.271Z,2.70
2022-08-11T06:31:12.978Z,2.80
2022-08-11T06:33:55.655Z,3.05
2022-08-11T06:36:34.608Z,2.90
2022-08-11T06:39:14.842Z,2.72
2022-08-11T06:41:50.206Z,3.58
2022-08-11T06:44:27.402Z,3.10
2022-08-11T06:47:01.371Z,2.63
2022-08-11T06:49:56.131Z,2.92
2022-08-11T06:52:35.674Z,2.40
2022-08-11T06:55:57.562Z,2.30
2022-08-11T06:58:47.733Z,2.45
2022-08-11T07:01:26.415Z,2.33
2022-08-11T07:04:05.843Z,2.70
2022-08-11T07:07:18.214Z,1.98
2022-08-11T07:10:45.653Z,2.40
2022-08-11T07:13:44.359Z,2.67
2022-08-11T07:16:24.331Z,2.50
2022-08-11T07:19:18.345Z,2.00
2022-08-11T07:22:06.733Z,2.80
2022-08-11T07:25:02.645Z,2.28
2022-08-11T07:28:00.304Z,2.17
2022-08-11T07:30:30.277Z,2.03
2022-08-11T07:33:04.112Z,2.08
2022-08-11T07:35:36.352Z,2.05
2022-08-11T07:38:09.419Z,2.10
2022-08-11T07:40:39.934Z,2.40
2022-08-11T07:43:09.973Z,2.30
2022-08-11T07:46:02.248Z,1.95
2022-08-11T07:48:52.037Z,1.92
2022-08-11T07:51:39.671Z,1.67
2022-08-11T07:54:17.145Z,2.22
2022-08-11T07:57:07.418Z,2.08
2022-08-11T08:00:03.838Z,1.65
2022-08-11T08:03:04.224Z,1.80
2022-08-11T08:05:53.536Z,2.00
2022-08-11T08:08:41.213Z,1.83
2022-08-11T08:11:29.017Z,1.92
2022-08-11T08:14:16.824Z,1.80
2022-08-11T08:17:04.838Z,1.65
2022-08-11T08:19:35.402Z,2.50
2022-08-11T08:22:38.271Z,1.80
2022-08-11T08:24:57.946Z,1.98
2022-08-11T08:27:28.656Z,1.77
2022-08-11T08:30:19.549Z,1.58
2022-08-11T08:32:49.641Z,2.00
2022-08-11T08:35:20.028Z,1.48
2022-08-11T08:37:52.974Z,1.50
2022-08-11T08:40:22.411Z,1.60
2022-08-11T08:42:56.706Z,2.13
2022-08-11T08:45:27.677Z,2.17
2022-08-11T08:48:02.035Z,4.97
2022-08-11T08:50:55.084Z,1.90
2022-08-11T08:53:32.295Z,1.80
2022-08-11T08:56:03.673Z,1.80
2022-08-11T08:58:35.252Z,1.88
2022-08-11T09:01:05.431Z,1.33
2022-08-11T09:04:05.385Z,1.40
2022-08-11T09:06:31.830Z,1.63
2022-08-11T09:09:03.179Z,1.88
2022-08-11T09:11:50.268Z,1.80
2022-08-11T09:14:20.511Z,1.92
2022-08-11T09:16:51.313Z,1.70
2022-08-11T09:19:23.001Z,1.58
2022-08-11T09:22:13.932Z,1.33
2022-08-11T09:25:02.334Z,1.33
2022-08-11T09:27:31.706Z,1.52
2022-08-11T09:30:01.352Z,1.88
2022-08-11T09:32:31.862Z,1.50
2022-08-11T09:35:03.234Z,1.55
2022-08-11T09:37:55.934Z,1.50
2022-08-11T09:40:30.862Z,1.58
2022-08-11T09:43:18.738Z,1.60
2022-08-11T09:45:52.377Z,2.55
2022-08-11T09:48:24.488Z,1.52
2022-08-11T09:50:56.411Z,1.38
2022-08-11T09:53:35.702Z,1.45
2022-08-11T09:56:31.678Z,1.40
2022-08-11T09:59:04.113Z,1.45
2022-08-11T10:01:38.133Z,2.67
2022-08-11T10:04:15.562Z,2.50
2022-08-11T10:07:04.577Z,1.95
2022-08-11T10:09:42.389Z,2.05
2022-08-11T10:12:16.303Z,1.67
2022-08-11T10:15:05.833Z,2.00
2022-08-11T10:18:01.036Z,1.75
2022-08-11T10:20:32.707Z,1.70
2022-08-11T10:23:22.338Z,1.30
2022-08-11T10:26:10.098Z,1.55
2022-08-11T10:29:02.521Z,1.80
2022-08-11T10:31:57.579Z,1.95
2022-08-11T10:34:29.812Z,1.83
2022-08-11T10:37:03.498Z,1.42
2022-08-11T10:39:33.434Z,1.60
2022-08-11T10:42:35.344Z,1.40
2022-08-11T10:45:26.693Z,1.52
2022-08-11T10:47:57.589Z,1.48
2022-08-11T10:50:50.337Z,1.38
2022-08-11T10:53:38.905Z,1.75
2022-08-11T10:56:26.830Z,1.30
2022-08-11T10:59:02.098Z,1.40
2022-08-11T11:01:39.304Z,1.63
2022-08-11T11:04:12.127Z,1.23
2022-08-11T11:06:52.217Z,1.20
2022-08-11T11:09:26.196Z,1.20
2022-08-11T11:12:15.949Z,1.27
2022-08-11T11:15:06.748Z,1.33
2022-08-11T11:18:04.940Z,2.30
2022-08-11T11:20:45.068Z,1.52
2022-08-11T11:23:20.405Z,1.40
2022-08-11T11:26:14.787Z,1.60
2022-08-11T11:29:25.332Z,1.35
2022-08-11T11:32:11.173Z,1.50
2022-08-11T11:35:12.971Z,1.40
2022-08-11T11:37:56.101Z,1.20
2022-08-11T11:40:34.423Z,1.50
2022-08-11T11:43:04.021Z,1.60
2022-08-11T11:45:33.872Z,1.40
2022-08-11T11:48:04.093Z,1.35
2022-08-11T11:50:37.338Z,1.40
2022-08-11T11:53:11.658Z,1.45
2022-08-11T11:55:45.717Z,1.55
2022-08-11T11:58:33.409Z,1.35
2022-08-11T12:01:19.303Z,1.30
2022-08-11T12:03:52.059Z,1.52
2022-08-11T12:06:27.896Z,1.60
2022-08-11T12:09:00.451Z,1.80
2022-08-11T12:11:49.383Z,2.03
2022-08-11T12:14:21.035Z,2.10
2022-08-11T12:16:51.566Z,2.20
2022-08-11T12:19:25.203Z,1.65
2022-08-11T12:22:14.972Z,1.40
2022-08-11T12:25:02.209Z,1.35
2022-08-11T12:27:32.907Z,1.27
2022-08-11T12:30:08.679Z,1.50
2022-08-11T12:32:39.223Z,1.50
2022-08-11T12:35:09.817Z,1.50
2022-08-11T12:37:43.886Z,1.90
2022-08-11T12:41:13.751Z,1.60
2022-08-11T12:43:56.620Z,1.48
2022-08-11T12:46:32.182Z,1.70
2022-08-11T12:49:24.413Z,1.70
2022-08-11T12:52:13.506Z,1.77
2022-08-11T12:54:57.979Z,1.67
2022-08-11T12:57:54.808Z,1.50
2022-08-11T13:00:42.578Z,1.60
2022-08-11T13:03:32.740Z,1.27
2022-08-11T13:06:04.077Z,1.30
2022-08-11T13:08:37.086Z,1.30
2022-08-11T13:11:55.682Z,1.38
2022-08-11T13:14:17.105Z,1.33
2022-08-11T13:17:04.641Z,1.27
2022-08-11T13:19:35.142Z,1.30
2022-08-11T13:22:05.453Z,1.70
2022-08-11T13:24:35.647Z,1.60
2022-08-11T13:27:06.953Z,1.50
2022-08-11T13:29:37.410Z,1.27
2022-08-11T13:32:07.131Z,1.77
2022-08-11T13:34:41.922Z,1.20
2022-08-11T13:37:19.819Z,1.40
2022-08-11T13:40:11.006Z,1.60
2022-08-11T13:42:45.677Z,1.55
2022-08-11T13:45:16.172Z,1.52
2022-08-11T13:47:47.255Z,1.70
2022-08-11T13:50:17.669Z,1.40
2022-08-11T13:52:53.136Z,1.70
2022-08-11T13:55:45.087Z,1.35
2022-08-11T13:58:19.332Z,1.42
2022-08-11T14:02:04.023Z,1.40
2022-08-11T14:04:31.118Z,1.50
2022-08-11T14:07:01.041Z,1.50
2022-08-11T14:09:35.292Z,1.75
2022-08-11T14:12:28.963Z,1.60
2022-08-11T14:15:09.301Z,1.77
2022-08-11T14:17:48.891Z,1.30
2022-08-11T14:20:39.565Z,1.50
2022-08-11T14:23:14.339Z,1.45
2022-08-11T14:26:04.174Z,1.70
2022-08-11T14:28:40.250Z,1.60
2022-08-11T14:31:16.168Z,1.42
2022-08-11T14:33:59.368Z,1.40
2022-08-11T14:36:34.235Z,1.58
2022-08-11T14:39:07.279Z,1.67
2022-08-11T14:42:10.802Z,1.73
2022-08-11T14:45:03.438Z,1.50
2022-08-11T14:47:36.441Z,1.50
2022-08-11T14:50:11.800Z,1.50
2022-08-11T14:52:49.044Z,1.60
2022-08-11T14:55:36.639Z,1.50
2022-08-11T14:58:06.791Z,1.50
2022-08-11T15:00:37.152Z,1.27
2022-08-11T15:03:11.406Z,1.65
2022-08-11T15:05:56.194Z,1.40
2022-08-11T15:08:47.901Z,3.00
2022-08-11T15:11:36.423Z,1.60
2022-08-11T15:14:08.326Z,1.55
2022-08-11T15:16:56.520Z,1.35
2022-08-11T15:19:40.173Z,1.30
2022-08-11T15:22:29.311Z,1.45
2022-08-11T15:25:00.540Z,1.50
2022-08-11T15:27:51.712Z,1.63
2022-08-11T15:30:40.422Z,1.40
2022-08-11T15:33:29.918Z,1.55
2022-08-11T15:36:21.738Z,1.33
2022-08-11T15:38:55.780Z,1.50
2022-08-11T15:41:58.267Z,1.95
2022-08-11T15:45:03.481Z,1.65
2022-08-11T15:47:41.488Z,1.63
2022-08-11T15:50:16.384Z,1.73
2022-08-11T15:52:57.759Z,2.03
2022-08-11T15:55:27.721Z,1.88
2022-08-11T15:58:15.861Z,1.58
2022-08-11T16:01:09.080Z,1.38
2022-08-11T16:04:07.602Z,1.63
2022-08-11T16:06:46.316Z,1.48
2022-08-11T16:09:24.504Z,1.30
2022-08-11T16:11:58.419Z,1.42
2022-08-11T16:14:47.441Z,1.63
2022-08-11T16:17:19.333Z,1.38
2022-08-11T16:19:53.133Z,1.60
2022-08-11T16:22:33.212Z,1.42
2022-08-11T16:27:01.507Z,1.60
2022-08-11T16:27:59.766Z,1.60
2022-08-11T16:30:32.198Z,1.50
2022-08-11T16:33:48.953Z,1.77
2022-08-11T16:36:13.616Z,1.67
2022-08-11T16:38:44.720Z,1.50
2022-08-11T16:41:38.794Z,1.50
2022-08-11T16:44:37.016Z,1.60
2022-08-11T16:47:09.509Z,1.65
2022-08-11T16:49:43.430Z,1.70
2022-08-11T16:52:13.535Z,1.70
2022-08-11T16:54:44.522Z,1.70
2022-08-11T16:57:37.030Z,1.80
2022-08-11T17:00:09.067Z,1.58
2022-08-11T17:03:01.759Z,1.83
2022-08-11T17:05:54.270Z,1.70
2022-08-11T17:08:57.112Z,1.63
2022-08-11T17:11:46.929Z,1.80
2022-08-11T17:14:35.292Z,1.55
2022-08-11T17:17:07.514Z,1.65
2022-08-11T17:20:40.370Z,1.60
2022-08-11T17:22:47.163Z,1.60
2022-08-11T17:25:18.580Z,1.50
2022-08-11T17:27:50.281Z,1.90
2022-08-11T17:30:21.323Z,1.55
2022-08-11T17:33:10.463Z,1.80
2022-08-11T17:35:44.782Z,1.85
2022-08-11T17:38:16.610Z,1.90
2022-08-11T17:41:02.400Z,1.70
2022-08-11T17:43:50.016Z,1.60
2022-08-11T17:46:38.917Z,2.00
2022-08-11T17:49:10.112Z,1.80
2022-08-11T17:52:00.141Z,2.00
2022-08-11T17:54:47.294Z,1.73
2022-08-11T17:57:36.173Z,2.30
2022-08-11T18:00:08.231Z,2.08
2022-08-11T18:03:06.697Z,2.22
2022-08-11T18:05:38.179Z,2.20
2022-08-11T18:08:28.356Z,1.90
2022-08-11T18:11:17.561Z,1.92
2022-08-11T18:14:26.580Z,2.10
2022-08-11T18:17:13.617Z,2.40
2022-08-11T18:20:02.223Z,2.17
2022-08-11T18:22:54.977Z,2.75
2022-08-11T18:25:46.270Z,2.10
2022-08-11T18:28:36.204Z,2.35
2022-08-11T18:31:25.042Z,2.13
2022-08-11T18:34:13.223Z,2.40
2022-08-11T18:37:07.863Z,2.47
2022-08-11T18:40:01.498Z,2.50
2022-08-11T18:42:50.558Z,2.75
2022-08-11T18:45:45.277Z,2.38
2022-08-11T18:48:39.568Z,2.10
2022-08-11T18:51:36.078Z,2.30
2022-08-11T18:54:28.485Z,2.30
2022-08-11T18:57:19.889Z,2.38
2022-08-11T19:00:08.778Z,2.30
2022-08-11T19:02:58.110Z,2.10
2022-08-11T19:06:32.422Z,2.35
2022-08-11T19:08:59.011Z,2.50
2022-08-11T19:11:49.661Z,2.40
2022-08-11T19:14:37.916Z,1.80
2022-08-11T19:17:44.854Z,2.50
2022-08-11T19:20:36.072Z,2.25
2022-08-11T19:23:25.599Z,2.22
2022-08-11T19:26:12.772Z,2.50
2022-08-11T19:29:03.237Z,2.20
2022-08-11T19:31:51.043Z,2.67
2022-08-11T19:34:39.576Z,2.60
2022-08-11T19:37:27.966Z,2.20
2022-08-11T19:40:18.284Z,2.22
2022-08-11T19:43:14.842Z,2.55
2022-08-11T19:46:18.782Z,2.75
2022-08-11T19:49:08.613Z,2.28
2022-08-11T19:51:56.420Z,2.53
2022-08-11T19:54:45.484Z,2.35
2022-08-11T19:57:39.253Z,2.00
2022-08-11T20:00:31.037Z,2.13
2022-08-11T20:03:22.329Z,2.33
2022-08-11T20:06:10.032Z,2.22
2022-08-11T20:09:00.723Z,2.08
2022-08-11T20:11:49.178Z,2.05
2022-08-11T20:14:37.318Z,2.47
2022-08-11T20:17:25.466Z,2.30
2022-08-11T20:20:14.470Z,2.40
2022-08-11T20:23:02.635Z,2.45
2022-08-11T20:25:53.153Z,3.03
2022-08-11T20:28:43.775Z,2.90
2022-08-11T20:31:31.717Z,2.53
2022-08-11T20:34:20.576Z,2.67
2022-08-11T20:37:09.759Z,2.85
2022-08-11T20:39:57.882Z,2.75
2022-08-11T20:42:47.382Z,2.72
2022-08-11T20:45:35.346Z,3.20
2022-08-11T20:48:23.457Z,3.08
2022-08-11T20:51:11.711Z,3.50
2022-08-11T20:54:06.485Z,3.25
2022-08-11T20:56:55.269Z,3.53
2022-08-11T20:59:56.745Z,3.22
2022-08-11T21:02:45.042Z,4.13
2022-08-11T21:06:08.677Z,4.50
2022-08-11T21:08:41.833Z,4.15
2022-08-11T21:11:33.324Z,4.25
2022-08-11T21:14:22.828Z,3.80
2022-08-11T21:17:27.915Z,3.92
2022-08-11T21:20:21.136Z,4.32
2022-08-11T21:23:19.834Z,3.40
2022-08-11T21:26:14.971Z,6.25
2022-08-11T21:29:04.333Z,4.78
2022-08-11T21:31:53.028Z,4.43
2022-08-11T21:34:41.090Z,4.68
2022-08-11T21:37:28.963Z,3.38
2022-08-11T21:40:19.234Z,3.20
2022-08-11T21:43:08.790Z,3.03
2022-08-11T21:45:58.481Z,3.10
2022-08-11T21:48:46.610Z,2.95
2022-08-11T21:51:33.287Z,2.85
2022-08-11T21:54:20.683Z,3.28
2022-08-11T21:57:07.793Z,2.63
2022-08-11T22:00:03.097Z,3.17
2022-08-11T22:03:00.415Z,2.60
2022-08-11T22:05:48.206Z,2.63
2022-08-11T22:08:35.647Z,2.53
2022-08-11T22:11:31.896Z,2.50
2022-08-11T22:14:19.756Z,2.63
2022-08-11T22:17:06.361Z,2.70
2022-08-11T22:19:56.748Z,2.53
2022-08-11T22:22:51.213Z,2.78
2022-08-11T22:25:51.464Z,2.42
2022-08-11T22:28:41.565Z,2.92
2022-08-11T22:31:30.072Z,2.67
2022-08-11T22:34:16.774Z,3.00
2022-08-11T22:37:07.078Z,3.20
2022-08-11T22:40:01.946Z,2.70
2022-08-11T22:42:50.513Z,3.15
2022-08-11T22:45:36.971Z,3.10
2022-08-11T22:48:24.524Z,2.88
2022-08-11T22:51:12.591Z,2.78
2022-08-11T22:54:00.566Z,2.80
2022-08-11T22:56:48.865Z,2.70
2022-08-11T22:59:36.871Z,2.70
2022-08-11T23:02:24.913Z,2.72
2022-08-11T23:05:11.580Z,2.88
2022-08-11T23:07:59.414Z,3.15
2022-08-11T23:10:48.730Z,3.10
2022-08-11T23:13:35.523Z,2.83
2022-08-11T23:16:22.981Z,3.83
2022-08-11T23:19:09.733Z,2.95
2022-08-11T23:21:56.842Z,3.70
2022-08-11T23:24:44.269Z,3.30
2022-08-11T23:27:33.927Z,3.63
2022-08-11T23:30:21.478Z,3.55
2022-08-11T23:33:11.552Z,3.30
2022-08-11T23:36:04.411Z,3.47
2022-08-11T23:38:52.352Z,3.50
2022-08-11T23:41:40.282Z,3.65
2022-08-11T23:44:28.554Z,3.15
2022-08-11T23:47:20.357Z,3.42
2022-08-11T23:50:07.115Z,3.10
2022-08-11T23:52:54.435Z,3.30
2022-08-11T23:55:41.075Z,3.30
2022-08-11T23:58:28.545Z,3.00
